Latest Weather Observations for Derby

IDW60801

Issued at 5:43 pm WST Monday 17 December 2018 (issued every 10 minutes, with the page automatically refreshed every 10 minutes)

About weather observations | Map of weather stations | Latest weather observations for WA | Other Formats
Station Details ID: 003032 Name: DERBY AERO Lat: -17.37 Lon: 123.66 Height: 6.2 m
Data from the previous 72 hours. | See also: Recent months at Derby
Date/Time
WST
Temp
°C
App
Temp
°C
Dew
Point
°C
Rel
Hum
%
Delta-T
°C
Wind Press
QNH
hPa
Press
MSL
hPa
Rain since
9am
mm
Dir  Spd
km/h
Gust
km/h
Spd
kts
Gust
kts
17/05:30pm 33.9 34.7 21.3 47 8.5 NNW 19 24 10 13 1004.0 1003.9 0.0
17/05:00pm 34.4 34.3 20.0 42 9.6 NNW 20 26 11 14 1003.8 1003.7 0.0
17/04:30pm 34.5 34.1 19.3 40 10.0 NNW 20 28 11 15 1003.8 1003.7 0.0
17/04:00pm 35.2 34.9 19.1 38 10.6 NNW 19 24 10 13 1003.9 1003.8 0.0
17/03:30pm 35.0 34.5 19.0 39 10.5 NNW 20 28 11 15 1003.9 1003.8 0.0
17/03:00pm 35.3 34.3 18.0 36 11.3 NW 20 28 11 15 1004.0 1003.9 0.0
17/02:30pm 36.1 35.2 18.2 34 11.7 NNW 20 28 11 15 1004.2 1004.1 0.0
17/02:00pm 35.6 35.5 18.7 37 11.1 NW 17 30 9 16 1004.7 1004.6 0.0
17/01:30pm 34.6 33.9 18.6 38 10.5 NW 20 33 11 18 1005.1 1005.0 0.0
17/01:00pm 33.9 33.5 18.0 39 10.3 NW 17 24 9 13 1005.6 1005.5 0.0
17/12:30pm 33.5 34.1 17.6 38 10.2 NNW 11 19 6 10 1005.9 1005.8 0.0
17/12:00pm 33.5 34.0 19.2 43 9.4 NW 15 22 8 12 1006.4 1006.3 0.0
17/11:30am 33.0 33.6 19.5 45 8.9 NW 15 24 8 13 1006.8 1006.7 0.0
17/11:00am 31.9 32.6 18.8 45 8.5 WNW 13 22 7 12 1007.3 1007.2 0.0
17/10:30am 31.3 32.0 19.6 49 7.7 W 15 24 8 13 1007.7 1007.6 0.0
17/10:00am 30.0 30.4 19.1 52 7.1 W 15 26 8 14 1008.1 1008.0 0.0
17/09:30am 30.3 30.2 19.6 52 7.0 WSW 19 26 10 14 1008.5 1008.4 0.0
17/09:00am 29.2 29.6 19.8 57 6.2 WSW 17 28 9 15 1008.7 1008.6 0.0
17/08:30am 28.5 29.1 20.2 60 5.5 WSW 17 26 9 14 1009.0 1008.9 0.0
17/08:00am 28.0 28.4 20.6 64 4.9 SW 19 24 10 13 1009.2 1009.1 0.0
17/07:30am 27.5 27.9 20.6 66 4.5 W 19 28 10 15 1009.2 1009.1 0.0
17/07:00am 26.9 27.7 20.7 69 4.1 WSW 17 24 9 13 1009.0 1008.9 0.0
17/06:30am 26.5 26.9 20.6 70 3.9 WSW 19 24 10 13 1008.7 1008.6 0.0
17/06:00am 26.3 26.5 20.6 71 3.7 WSW 20 24 11 13 1008.1 1008.0 0.0
17/05:30am 25.6 26.3 20.4 73 3.4 WSW 17 20 9 11 1007.8 1007.7 0.0
17/05:00am 25.6 25.7 20.4 73 3.4 W 20 24 11 13 1007.3 1007.2 0.0
17/04:30am 25.8 26.0 20.6 73 3.4 W 20 26 11 14 1006.7 1006.6 0.0
17/04:00am 25.7 26.6 20.9 75 3.2 W 17 24 9 13 1006.4 1006.3 0.0
17/03:30am 25.6 26.2 21.1 76 3.0 W 19 26 10 14 1006.1 1006.0 0.0
17/03:00am 25.9 26.4 21.1 75 3.2 W 20 28 11 15 1006.1 1006.0 0.0
17/02:30am 25.8 26.1 21.5 77 2.9 W 22 28 12 15 1006.1 1006.0 0.0
17/02:00am 26.0 26.6 21.4 76 3.1 W 20 28 11 15 1006.1 1006.0 0.0
17/01:30am 25.8 26.5 21.5 77 2.9 W 20 26 11 14 1006.2 1006.1 0.0
17/01:00am 25.8 27.0 21.5 77 2.9 W 17 24 9 13 1006.4 1006.3 0.0
17/12:30am 25.9 27.0 21.3 76 3.0 W 17 20 9 11 1006.5 1006.4 0.0
17/12:00am 26.3 26.1 21.3 74 3.3 W 24 28 13 15 1006.8 1006.7 0.0
 
Date/Time
WST
Temp
°C
App
Temp
°C
Dew
Point
°C
Rel
Hum
%
Delta-T
°C
Wind Press
QNH
hPa
Press
MSL
hPa
Rain since
9am
mm
Dir  Spd
km/h
Gust
km/h
Spd
kts
Gust
kts
16/11:30pm 26.6 27.1 20.9 71 3.8 WSW 19 24 10 13 1007.2 1007.1 0.0
16/11:00pm 27.0 27.3 20.8 69 4.1 W 20 24 11 13 1007.3 1007.2 0.0
16/10:30pm 27.5 27.3 20.6 66 4.5 W 22 28 12 15 1007.4 1007.3 0.0
16/10:00pm 28.2 28.0 20.5 63 5.1 WSW 22 26 12 14 1007.4 1007.3 0.0
16/09:30pm 28.6 28.6 20.1 60 5.6 WSW 20 24 11 13 1007.2 1007.1 0.0
16/09:00pm 29.2 28.9 19.5 56 6.3 WSW 20 22 11 12 1007.1 1007.0 0.0
16/08:30pm 30.0 29.5 19.1 52 7.1 W 20 26 11 14 1006.9 1006.8 0.0
16/08:00pm 30.6 29.5 17.7 46 8.2 WSW 20 26 11 14 1006.4 1006.3 0.0
16/07:30pm 31.4 30.5 17.7 44 8.8 W 19 24 10 13 1006.1 1006.0 0.0
16/07:00pm 32.2 30.5 17.3 41 9.5 WSW 22 26 12 14 1005.8 1005.7 0.0
16/06:30pm 33.1 30.3 17.3 39 10.1 WSW 28 35 15 19 1005.2 1005.1 0.0
16/06:00pm 34.3 30.5 16.6 34 11.3 WSW 32 39 17 21 1004.6 1004.5 0.0
16/05:30pm 35.5 32.3 17.2 33 11.8 WSW 30 39 16 21 1004.2 1004.1 0.0
16/05:00pm 36.6 33.0 17.2 31 12.6 W 32 41 17 22 1003.6 1003.5 0.0
16/04:30pm 37.7 36.0 18.2 32 12.8 W 24 39 13 21 1003.4 1003.3 0.0
16/04:00pm 37.6 37.1 20.0 36 11.9 NW 22 32 12 17 1003.3 1003.2 0.0
16/03:30pm 36.7 36.7 21.7 42 10.3 NNW 24 30 13 16 1003.4 1003.3 0.0
16/03:00pm 36.5 35.2 20.7 39 10.7 NNW 28 35 15 19 1003.5 1003.4 0.0
16/02:30pm 37.0 35.5 20.3 37 11.2 NNW 28 33 15 18 1003.7 1003.6 0.0
16/02:00pm 36.5 35.4 20.3 38 10.9 NNW 26 33 14 18 1003.9 1003.8 0.0
16/01:30pm 36.2 35.4 20.8 40 10.4 NNW 26 32 14 17 1004.5 1004.4 0.0
16/01:00pm 36.5 37.4 21.9 42 10.0 NNW 20 28 11 15 1004.8 1004.7 0.0
16/12:30pm 35.0 35.6 21.3 45 9.3 NW 20 30 11 16 1005.0 1004.9 0.0
16/12:00pm 35.0 35.6 21.3 45 9.3 NW 20 30 11 16 1005.2 1005.1 0.0
16/11:30am 34.4 35.4 21.8 48 8.6 NW 19 28 10 15 1005.6 1005.5 0.0
16/11:00am 33.7 35.1 21.8 49 8.1 NW 17 28 9 15 1006.0 1005.9 0.0
16/10:30am 32.6 33.5 21.5 52 7.5 WNW 19 24 10 13 1006.7 1006.6 0.0
16/10:00am 31.7 31.7 20.9 52 7.2 WNW 22 30 12 16 1007.0 1006.9 0.0
16/09:30am 32.0 33.0 22.1 55 6.7 WNW 20 32 11 17 1007.3 1007.2 0.0
16/09:00am 31.1 31.6 21.9 58 6.2 W 22 30 12 16 1007.5 1007.4 0.0
16/08:30am 29.9 31.0 22.3 63 5.2 W 20 33 11 18 1007.6 1007.5 0.0
16/08:00am 29.1 30.0 22.6 68 4.4 W 22 30 12 16 1007.5 1007.4 0.0
16/07:30am 28.2 29.3 22.4 71 3.9 W 20 32 11 17 1007.5 1007.4 0.0
16/07:00am 27.9 29.3 22.8 74 3.5 W 20 28 11 15 1007.4 1007.3 0.0
16/06:30am 27.4 29.2 23.2 78 2.9 W 19 22 10 12 1007.1 1007.0 0.0
16/06:00am 26.7 28.4 23.0 80 2.5 W 19 22 10 12 1006.9 1006.8 0.0
16/05:30am 26.0 28.5 23.1 84 2.0 W 15 19 8 10 1006.6 1006.5 0.0
16/05:00am 25.7 27.6 22.8 84 2.0 W 17 20 9 11 1006.2 1006.1 0.0
16/04:30am 26.0 28.0 22.9 83 2.1 W 17 20 9 11 1005.9 1005.8 0.0
16/04:00am 26.2 27.8 22.9 82 2.2 W 19 26 10 14 1005.5 1005.4 0.0
16/03:30am 26.2 28.3 23.1 83 2.1 W 17 24 9 13 1005.3 1005.2 0.0
16/03:00am 26.2 28.7 23.1 83 2.1 WNW 15 20 8 11 1005.2 1005.1 0.0
16/02:30am 26.5 28.2 23.0 81 2.4 WNW 19 22 10 12 1005.1 1005.0 0.0
16/02:00am 26.7 28.7 23.0 80 2.5 WNW 17 26 9 14 1005.1 1005.0 0.0
16/01:30am 26.9 28.3 22.9 79 2.7 WNW 20 24 11 13 1005.1 1005.0 0.0
16/01:00am 27.2 28.2 22.8 77 3.0 WNW 22 28 12 15 1005.2 1005.1 0.0
16/12:30am 27.5 28.5 22.9 76 3.1 WNW 22 28 12 15 1005.4 1005.3 0.0
16/12:00am 27.8 28.7 22.7 74 3.5 WNW 22 28 12 15 1005.4 1005.3 0.0
 
Date/Time
WST
Temp
°C
App
Temp
°C
Dew
Point
°C
Rel
Hum
%
Delta-T
°C
Wind Press
QNH
hPa
Press
MSL
hPa
Rain since
9am
mm
Dir  Spd
km/h
Gust
km/h
Spd
kts
Gust
kts
15/11:30pm 28.2 28.9 22.2 70 4.0 WNW 22 28 12 15 1005.5 1005.4 0.0
15/11:00pm 28.7 30.0 22.4 68 4.3 WNW 19 26 10 14 1005.6 1005.5 0.0
15/10:30pm 29.4 30.8 22.6 67 4.6 NW 19 24 10 13 1005.5 1005.4 0.0
15/10:00pm 29.7 30.7 22.2 64 5.1 NW 20 26 11 14 1005.4 1005.3 0.0
15/09:30pm 30.0 31.6 23.9 70 4.2 NW 22 28 12 15 1005.2 1005.1 0.0
15/09:00pm 30.3 31.2 24.0 69 4.4 NW 26 33 14 18 1004.7 1004.6 0.0
15/08:30pm 30.6 31.0 23.8 67 4.7 NW 28 39 15 21 1004.3 1004.2 0.0
15/08:00pm 31.1 31.2 24.0 66 5.0 NW 30 37 16 20 1003.7 1003.6 0.0
15/07:30pm 31.1 31.5 25.0 70 4.3 NNW 32 41 17 22 1003.3 1003.2 0.0
15/07:00pm 31.3 31.8 25.2 70 4.3 NNW 32 43 17 23 1002.7 1002.6 0.0
15/06:30pm 31.1 31.7 25.7 73 3.8 NNW 33 43 18 23 1002.3 1002.2 0.0
15/06:00pm 31.5 32.3 25.6 71 4.2 NNW 32 43 17 23 1002.1 1002.0 0.0
15/05:30pm 31.7 31.7 25.3 69 4.5 NNW 35 44 19 24 1002.0 1001.9 0.0
15/05:00pm 32.5 32.7 25.1 65 5.2 NNW 33 44 18 24 1001.8 1001.7 0.0
15/04:30pm 33.1 32.8 24.8 61 5.9 NNW 35 43 19 23 1001.7 1001.6 0.0
15/04:00pm 33.0 32.2 24.7 61 5.9 NNW 37 46 20 25 1001.7 1001.6 0.0
15/03:30pm 34.4 33.8 24.3 55 7.1 NNW 35 43 19 23 1001.7 1001.6 0.0
15/03:00pm 34.6 34.5 24.5 55 7.1 NNW 33 41 18 22 1001.8 1001.7 0.0
15/02:30pm 34.9 35.4 23.9 53 7.7 NNW 28 35 15 19 1002.2 1002.1 0.0
15/02:00pm 35.2 36.0 23.8 51 8.0 NNW 26 33 14 18 1002.5 1002.4 0.0
15/01:30pm 35.9 37.5 24.5 52 8.1 NNW 24 37 13 20 1002.7 1002.6 0.0
15/01:00pm 35.4 36.7 23.4 50 8.4 NW 22 30 12 16 1002.9 1002.8 0.0
15/12:30pm 35.6 37.2 23.2 48 8.6 NW 20 26 11 14 1003.3 1003.2 0.0
15/12:00pm 34.8 37.5 23.5 52 7.9 NNW 15 24 8 13 1003.8 1003.7 0.0
15/11:30am 33.2 35.2 22.3 52 7.5 NW 15 22 8 12 1004.5 1004.4 0.0
15/11:00am 33.1 35.8 22.8 54 7.1 NNW 13 24 7 13 1004.7 1004.6 0.0
15/10:30am 32.7 35.7 23.3 57 6.5 WNW 13 20 7 11 1005.2 1005.1 0.0
15/10:00am 32.0 35.4 23.3 60 6.0 NW 11 19 6 10 1005.5 1005.4 0.0
15/09:30am 31.6 34.6 23.4 61 5.7 N 13 20 7 11 1005.8 1005.7 0.0
15/09:00am 31.2 34.0 23.0 61 5.6 NW 13 19 7 10 1006.0 1005.9 0.0
15/08:30am 30.9 34.2 23.8 66 4.9 NW 13 20 7 11 1006.2 1006.1 0.0
15/08:00am 30.0 32.5 23.2 67 4.7 NW 15 20 8 11 1006.4 1006.3 0.0
15/07:30am 29.6 33.0 23.3 69 4.3 NW 11 17 6 9 1006.3 1006.2 0.0
15/07:00am 28.9 31.8 23.1 71 4.0 WNW 13 17 7 9 1006.2 1006.1 0.0
15/06:30am 29.0 31.4 23.7 73 3.7 WNW 17 20 9 11 1006.1 1006.0 0.0
15/06:00am 28.2 31.2 23.3 75 3.4 W 13 20 7 11 1006.1 1006.0 0.0
15/05:30am 27.9 31.6 23.9 79 2.8 WNW 11 15 6 8 1005.7 1005.6 0.0
15/05:00am 27.7 31.5 24.1 81 2.5 WSW 11 13 6 7 1005.6 1005.5 0.0
15/04:30am 27.7 31.1 24.1 81 2.5 W 13 20 7 11 1005.2 1005.1 0.0
15/04:00am 27.8 30.6 23.6 78 2.9 WNW 15 20 8 11 1004.9 1004.8 0.0
15/03:30am 27.9 30.8 23.9 79 2.8 W 15 19 8 10 1004.8 1004.7 0.0
15/03:00am 28.0 30.6 24.0 79 2.8 W 17 22 9 12 1004.6 1004.5 0.0
15/02:30am 27.9 31.1 24.3 81 2.5 WNW 15 19 8 10 1004.6 1004.5 0.0
15/02:00am 27.8 30.5 24.2 81 2.5 WNW 17 22 9 12 1004.6 1004.5 0.0
15/01:30am 28.0 30.2 24.2 80 2.6 WNW 20 26 11 14 1004.6 1004.5 0.0
15/01:00am 28.3 30.5 24.3 79 2.8 WNW 20 28 11 15 1004.6 1004.5 0.0
15/12:30am 28.4 29.8 24.2 78 2.9 NW 24 30 13 16 1004.7 1004.6 0.0
15/12:00am 28.4 29.4 24.2 78 2.9 NW 26 33 14 18 1004.8 1004.7 0.0
 
Date/Time
WST
Temp
°C
App
Temp
°C
Dew
Point
°C
Rel
Hum
%
Delta-T
°C
Wind Press
QNH
hPa
Press
MSL
hPa
Rain since
9am
mm
Dir  Spd
km/h
Gust
km/h
Spd
kts
Gust
kts
14/11:30pm 28.6 30.0 24.2 77 3.1 WNW 24 32 13 17 1004.9 1004.8 0.0
14/11:00pm 28.9 30.1 24.5 77 3.1 NW 26 32 14 17 1005.3 1005.2 0.0
14/10:30pm 28.9 29.5 24.2 76 3.3 NW 28 33 15 18 1005.5 1005.4 0.0
14/10:00pm 29.1 29.4 24.2 75 3.4 NW 30 37 16 20 1005.5 1005.4 0.0
14/09:30pm 29.3 29.9 24.2 74 3.5 NW 28 35 15 19 1005.6 1005.5 0.0
14/09:00pm 29.5 30.5 24.1 72 3.8 NW 26 32 14 17 1005.5 1005.4 0.0
14/08:30pm 29.7 31.2 24.3 73 3.8 NW 24 32 13 17 1005.3 1005.2 0.0
14/08:00pm 30.0 31.6 25.1 75 3.5 NNW 26 33 14 18 1004.9 1004.8 0.0
14/07:30pm 30.1 30.8 24.9 73 3.6 NNW 30 37 16 20 1004.6 1004.5 0.0
14/07:00pm 30.1 30.4 24.9 73 3.7 NNW 32 39 17 21 1004.5 1004.4 0.0
14/06:30pm 30.3 30.4 24.9 73 3.8 NNW 33 44 18 24 1004.2 1004.1 0.0
14/06:00pm 30.6 31.0 25.0 72 3.9 NNW 32 41 17 22 1003.8 1003.7 0.0

Other Formats:

Comma delimited format used in spreadsheet applications
http://www.bom.gov.au/fwo/IDW60801/IDW60801.95205.axf

JavaScript Object Notation format (JSON) in row-major order
http://www.bom.gov.au/fwo/IDW60801/IDW60801.95205.json